sensor_id;sensor_type;location;lat;lon;timestamp;pressure;altitude;pressure_sealevel;temperature;humidity
11808;BME280;5961;42.640;23.380;2023-02-28T00:00:17;94484.06;;;8.97;100.00
11808;BME280;5961;42.640;23.380;2023-02-28T00:02:44;94491.41;;;9.00;100.00
11808;BME280;5961;42.640;23.380;2023-02-28T00:05:12;94481.09;;;8.98;100.00
11808;BME280;5961;42.640;23.380;2023-02-28T00:07:40;94456.44;;;8.89;100.00
11808;BME280;5961;42.640;23.380;2023-02-28T00:10:10;94458.47;;;8.83;100.00
11808;BME280;5961;42.640;23.380;2023-02-28T00:12:38;94480.81;;;9.00;100.00
11808;BME280;5961;42.640;23.380;2023-02-28T00:15:06;94475.50;;;8.91;100.00
11808;BME280;5961;42.640;23.380;2023-02-28T00:17:34;94474.97;;;8.72;100.00
11808;BME280;5961;42.640;23.380;2023-02-28T00:20:01;94485.75;;;8.84;100.00
11808;BME280;5961;42.640;23.380;2023-02-28T00:22:37;94484.81;;;8.80;100.00
11808;BME280;5961;42.640;23.380;2023-02-28T00:25:05;94488.84;;;8.69;100.00
11808;BME280;5961;42.640;23.380;2023-02-28T00:27:33;94478.25;;;8.60;100.00
11808;BME280;5961;42.640;23.380;2023-02-28T00:30:01;94475.59;;;8.60;100.00
11808;BME280;5961;42.640;23.380;2023-02-28T00:32:27;94479.13;;;8.47;100.00
11808;BME280;5961;42.640;23.380;2023-02-28T00:34:55;94470.91;;;8.49;100.00
11808;BME280;5961;42.640;23.380;2023-02-28T00:37:21;94491.75;;;8.50;100.00
11808;BME280;5961;42.640;23.380;2023-02-28T00:39:48;94485.56;;;8.55;100.00
11808;BME280;5961;42.640;23.380;2023-02-28T00:42:15;94471.06;;;8.61;100.00
11808;BME280;5961;42.640;23.380;2023-02-28T00:44:42;94466.25;;;8.63;100.00
11808;BME280;5961;42.640;23.380;2023-02-28T00:47:10;94467.66;;;8.69;100.00
11808;BME280;5961;42.640;23.380;2023-02-28T00:49:36;94472.16;;;8.68;100.00
11808;BME280;5961;42.640;23.380;2023-02-28T00:52:03;94459.25;;;8.67;100.00
11808;BME280;5961;42.640;23.380;2023-02-28T00:54:30;94465.97;;;8.73;100.00
11808;BME280;5961;42.640;23.380;2023-02-28T00:56:57;94477.00;;;8.75;100.00
11808;BME280;5961;42.640;23.380;2023-02-28T00:59:23;94475.28;;;8.70;100.00
11808;BME280;5961;42.640;23.380;2023-02-28T01:01:50;94480.91;;;8.77;100.00
11808;BME280;5961;42.640;23.380;2023-02-28T01:04:18;94479.66;;;8.75;100.00
11808;BME280;5961;42.640;23.380;2023-02-28T01:06:45;94480.75;;;8.74;100.00
11808;BME280;5961;42.640;23.380;2023-02-28T01:09:12;94493.25;;;8.82;100.00
11808;BME280;5961;42.640;23.380;2023-02-28T01:11:39;94476.84;;;8.80;100.00
11808;BME280;5961;42.640;23.380;2023-02-28T01:14:08;94476.88;;;8.89;100.00
11808;BME280;5961;42.640;23.380;2023-02-28T01:16:35;94480.31;;;8.98;100.00
11808;BME280;5961;42.640;23.380;2023-02-28T01:19:01;94474.88;;;9.03;100.00
11808;BME280;5961;42.640;23.380;2023-02-28T01:21:29;94472.38;;;9.06;100.00
11808;BME280;5961;42.640;23.380;2023-02-28T01:23:56;94471.75;;;9.09;100.00
11808;BME280;5961;42.640;23.380;2023-02-28T01:26:24;94439.31;;;8.95;100.00
11808;BME280;5961;42.640;23.380;2023-02-28T01:28:51;94476.13;;;9.22;100.00
11808;BME280;5961;42.640;23.380;2023-02-28T01:31:20;94469.72;;;9.23;100.00
11808;BME280;5961;42.640;23.380;2023-02-28T01:33:47;94452.88;;;9.19;100.00
11808;BME280;5961;42.640;23.380;2023-02-28T01:36:15;94465.66;;;9.26;100.00
11808;BME280;5961;42.640;23.380;2023-02-28T01:38:44;94469.41;;;9.25;100.00
11808;BME280;5961;42.640;23.380;2023-02-28T01:41:16;94439.31;;;8.95;100.00
11808;BME280;5961;42.640;23.380;2023-02-28T01:43:58;94477.06;;;9.26;100.00
11808;BME280;5961;42.640;23.380;2023-02-28T01:46:25;94476.44;;;9.29;100.00
11808;BME280;5961;42.640;23.380;2023-02-28T01:48:56;94467.41;;;9.30;100.00
11808;BME280;5961;42.640;23.380;2023-02-28T01:51:27;94474.09;;;9.28;100.00
11808;BME280;5961;42.640;23.380;2023-02-28T01:53:59;94484.22;;;9.34;100.00
11808;BME280;5961;42.640;23.380;2023-02-28T01:56:29;94486.75;;;9.40;100.00
11808;BME280;5961;42.640;23.380;2023-02-28T01:58:57;94478.28;;;9.37;100.00
11808;BME280;5961;42.640;23.380;2023-02-28T02:01:24;94475.81;;;9.32;100.00
11808;BME280;5961;42.640;23.380;2023-02-28T02:03:54;94474.25;;;9.31;100.00
11808;BME280;5961;42.640;23.380;2023-02-28T02:06:23;94408.28;;;8.78;100.00
11808;BME280;5961;42.640;23.380;2023-02-28T02:08:51;94483.28;;;9.05;100.00
11808;BME280;5961;42.640;23.380;2023-02-28T02:11:21;94477.97;;;8.96;100.00
11808;BME280;5961;42.640;23.380;2023-02-28T02:14:12;94485.16;;;8.87;100.00
11808;BME280;5961;42.640;23.380;2023-02-28T02:16:53;94480.91;;;8.77;100.00
11808;BME280;5961;42.640;23.380;2023-02-28T02:20:00;94474.97;;;8.72;100.00
11808;BME280;5961;42.640;23.380;2023-02-28T02:22:49;94472.94;;;8.69;100.00
11808;BME280;5961;42.640;23.380;2023-02-28T02:25:28;94471.34;;;8.51;100.00
11808;BME280;5961;42.640;23.380;2023-02-28T02:28:11;94474.47;;;8.53;100.00
11808;BME280;5961;42.640;23.380;2023-02-28T02:30:58;94446.31;;;8.17;100.00
11808;BME280;5961;42.640;23.380;2023-02-28T02:36:32;94468.16;;;8.32;100.00
11808;BME280;5961;42.640;23.380;2023-02-28T02:39:05;94475.50;;;8.35;100.00
11808;BME280;5961;42.640;23.380;2023-02-28T02:41:35;94471.31;;;8.34;100.00
11808;BME280;5961;42.640;23.380;2023-02-28T02:44:09;94471.44;;;8.28;100.00
11808;BME280;5961;42.640;23.380;2023-02-28T02:46:41;94483.53;;;8.21;100.00
11808;BME280;5961;42.640;23.380;2023-02-28T02:49:13;94484.84;;;8.32;100.00
11808;BME280;5961;42.640;23.380;2023-02-28T02:51:44;94474.44;;;8.36;100.00
11808;BME280;5961;42.640;23.380;2023-02-28T02:54:16;94482.84;;;8.46;100.00
11808;BME280;5961;42.640;23.380;2023-02-28T02:56:46;94486.00;;;8.57;100.00
11808;BME280;5961;42.640;23.380;2023-02-28T02:59:16;94474.47;;;8.61;100.00
11808;BME280;5961;42.640;23.380;2023-02-28T03:01:49;94494.44;;;8.67;100.00
11808;BME280;5961;42.640;23.380;2023-02-28T03:04:19;94491.97;;;8.71;100.00
11808;BME280;5961;42.640;23.380;2023-02-28T03:06:47;94508.03;;;8.74;100.00
11808;BME280;5961;42.640;23.380;2023-02-28T03:09:14;94506.50;;;8.82;100.00
11808;BME280;5961;42.640;23.380;2023-02-28T03:11:41;94515.81;;;8.79;100.00
11808;BME280;5961;42.640;23.380;2023-02-28T03:14:22;94518.53;;;8.88;100.00
11808;BME280;5961;42.640;23.380;2023-02-28T03:17:16;94519.44;;;8.92;100.00
11808;BME280;5961;42.640;23.380;2023-02-28T03:19:55;94521.63;;;8.90;100.00
11808;BME280;5961;42.640;23.380;2023-02-28T03:22:33;94518.97;;;8.90;100.00
11808;BME280;5961;42.640;23.380;2023-02-28T03:25:09;94526.16;;;8.98;100.00
11808;BME280;5961;42.640;23.380;2023-02-28T03:27:42;94530.38;;;8.99;100.00
11808;BME280;5961;42.640;23.380;2023-02-28T03:30:17;94506.97;;;8.84;100.00
11808;BME280;5961;42.640;23.380;2023-02-28T03:32:51;94536.75;;;8.98;100.00
11808;BME280;5961;42.640;23.380;2023-02-28T03:35:21;94535.84;;;8.94;100.00
11808;BME280;5961;42.640;23.380;2023-02-28T03:37:53;94535.84;;;8.94;100.00
11808;BME280;5961;42.640;23.380;2023-02-28T03:40:23;94525.69;;;8.88;100.00
11808;BME280;5961;42.640;23.380;2023-02-28T03:42:55;94538.78;;;8.93;100.00
11808;BME280;5961;42.640;23.380;2023-02-28T03:45:25;94508.47;;;8.68;100.00
11808;BME280;5961;42.640;23.380;2023-02-28T03:47:57;94541.44;;;8.93;100.00
11808;BME280;5961;42.640;23.380;2023-02-28T03:50:27;94543.00;;;8.94;100.00
11808;BME280;5961;42.640;23.380;2023-02-28T03:53:02;94551.25;;;8.92;100.00
11808;BME280;5961;42.640;23.380;2023-02-28T03:55:35;94541.13;;;8.94;100.00
11808;BME280;5961;42.640;23.380;2023-02-28T03:58:07;94511.44;;;8.66;100.00
11808;BME280;5961;42.640;23.380;2023-02-28T04:00:39;94544.53;;;8.95;100.00
11808;BME280;5961;42.640;23.380;2023-02-28T04:03:09;94549.72;;;8.91;100.00
11808;BME280;5961;42.640;23.380;2023-02-28T04:05:47;94524.09;;;8.78;100.00
11808;BME280;5961;42.640;23.380;2023-02-28T04:08:16;94546.56;;;8.89;100.00
11808;BME280;5961;42.640;23.380;2023-02-28T04:10:47;94548.59;;;8.83;100.00
11808;BME280;5961;42.640;23.380;2023-02-28T04:13:16;94543.44;;;8.87;100.00
11808;BME280;5961;42.640;23.380;2023-02-28T04:15:43;94539.34;;;8.64;100.00
11808;BME280;5961;42.640;23.380;2023-02-28T04:18:10;94528.56;;;8.60;100.00
11808;BME280;5961;42.640;23.380;2023-02-28T04:20:36;94548.53;;;8.66;100.00
11808;BME280;5961;42.640;23.380;2023-02-28T04:23:03;94540.88;;;8.65;100.00
11808;BME280;5961;42.640;23.380;2023-02-28T04:25:31;94537.78;;;8.63;100.00
11808;BME280;5961;42.640;23.380;2023-02-28T04:27:58;94542.13;;;8.59;100.00
11808;BME280;5961;42.640;23.380;2023-02-28T04:30:25;94542.72;;;8.56;100.00
11808;BME280;5961;42.640;23.380;2023-02-28T04:32:52;94534.31;;;8.54;100.00
11808;BME280;5961;42.640;23.380;2023-02-28T04:35:18;94538.03;;;8.53;100.00
11808;BME280;5961;42.640;23.380;2023-02-28T04:37:45;94547.56;;;8.54;100.00
11808;BME280;5961;42.640;23.380;2023-02-28T04:40:12;94543.94;;;8.50;100.00
11808;BME280;5961;42.640;23.380;2023-02-28T04:42:40;94551.09;;;8.41;100.00
11808;BME280;5961;42.640;23.380;2023-02-28T04:45:08;94556.38;;;8.41;100.00
11808;BME280;5961;42.640;23.380;2023-02-28T04:47:36;94558.56;;;8.39;100.00
11808;BME280;5961;42.640;23.380;2023-02-28T04:50:03;94565.06;;;8.33;100.00
11808;BME280;5961;42.640;23.380;2023-02-28T04:52:30;94559.78;;;8.33;100.00
11808;BME280;5961;42.640;23.380;2023-02-28T04:54:56;94564.28;;;8.32;100.00
11808;BME280;5961;42.640;23.380;2023-02-28T04:57:23;94561.47;;;8.28;100.00
11808;BME280;5961;42.640;23.380;2023-02-28T04:59:51;94556.66;;;8.31;100.00
11808;BME280;5961;42.640;23.380;2023-02-28T05:02:18;94562.44;;;8.33;100.00
11808;BME280;5961;42.640;23.380;2023-02-28T05:04:46;94566.66;;;8.34;100.00
11808;BME280;5961;42.640;23.380;2023-02-28T05:07:13;94569.75;;;8.36;100.00
11808;BME280;5961;42.640;23.380;2023-02-28T05:09:39;94537.16;;;8.04;100.00
11808;BME280;5961;42.640;23.380;2023-02-28T05:12:07;94561.97;;;8.31;100.00
11808;BME280;5961;42.640;23.380;2023-02-28T05:14:34;94569.59;;;8.32;100.00
11808;BME280;5961;42.640;23.380;2023-02-28T05:17:03;94578.78;;;8.35;100.00
11808;BME280;5961;42.640;23.380;2023-02-28T05:19:29;94536.22;;;8.00;100.00
11808;BME280;5961;42.640;23.380;2023-02-28T05:21:56;94578.50;;;8.36;100.00
11808;BME280;5961;42.640;23.380;2023-02-28T05:24:23;94580.97;;;8.33;100.00
11808;BME280;5961;42.640;23.380;2023-02-28T05:26:51;94587.38;;;8.40;100.00
11808;BME280;5961;42.640;23.380;2023-02-28T05:29:18;94588.34;;;8.44;100.00
11808;BME280;5961;42.640;23.380;2023-02-28T05:31:45;94583.22;;;8.48;100.00
11808;BME280;5961;42.640;23.380;2023-02-28T05:34:13;94584.47;;;8.50;100.00
11808;BME280;5961;42.640;23.380;2023-02-28T05:36:41;94593.56;;;8.58;100.00
11808;BME280;5961;42.640;23.380;2023-02-28T05:39:08;94546.06;;;8.31;100.00
11808;BME280;5961;42.640;23.380;2023-02-28T05:41:39;94599.31;;;8.60;100.00
11808;BME280;5961;42.640;23.380;2023-02-28T05:44:05;94597.13;;;8.62;100.00
11808;BME280;5961;42.640;23.380;2023-02-28T05:46:32;94600.13;;;8.60;100.00
11808;BME280;5961;42.640;23.380;2023-02-28T05:48:58;94599.00;;;8.61;100.00
11808;BME280;5961;42.640;23.380;2023-02-28T05:51:27;94607.09;;;8.56;100.00
11808;BME280;5961;42.640;23.380;2023-02-28T05:53:54;94609.47;;;8.58;100.00
11808;BME280;5961;42.640;23.380;2023-02-28T05:56:21;94606.31;;;8.56;100.00
11808;BME280;5961;42.640;23.380;2023-02-28T05:58:48;94610.53;;;8.57;100.00
11808;BME280;5961;42.640;23.380;2023-02-28T06:01:31;94613.00;;;8.53;100.00
11808;BME280;5961;42.640;23.380;2023-02-28T06:03:58;94610.81;;;8.55;100.00
11808;BME280;5961;42.640;23.380;2023-02-28T06:06:26;94599.47;;;8.55;100.00
11808;BME280;5961;42.640;23.380;2023-02-28T06:08:54;94605.22;;;8.57;100.00
11808;BME280;5961;42.640;23.380;2023-02-28T06:11:21;94607.56;;;8.58;100.00
11808;BME280;5961;42.640;23.380;2023-02-28T06:13:53;94609.56;;;8.53;100.00
11808;BME280;5961;42.640;23.380;2023-02-28T06:16:20;94603.81;;;8.51;100.00
11808;BME280;5961;42.640;23.380;2023-02-28T06:18:47;94602.66;;;8.43;100.00
11808;BME280;5961;42.640;23.380;2023-02-28T06:21:13;94593.81;;;8.25;100.00
11808;BME280;5961;42.640;23.380;2023-02-28T06:23:41;94589.63;;;8.24;100.00
11808;BME280;5961;42.640;23.380;2023-02-28T06:26:09;94602.38;;;8.22;100.00
11808;BME280;5961;42.640;23.380;2023-02-28T06:28:36;94600.50;;;8.23;100.00
11808;BME280;5961;42.640;23.380;2023-02-28T06:31:06;94607.47;;;8.19;100.00
11808;BME280;5961;42.640;23.380;2023-02-28T06:33:34;94617.31;;;8.18;100.00
11808;BME280;5961;42.640;23.380;2023-02-28T06:36:01;94613.09;;;8.17;100.00
11808;BME280;5961;42.640;23.380;2023-02-28T06:38:27;94609.47;;;8.13;100.00
11808;BME280;5961;42.640;23.380;2023-02-28T06:40:56;94613.22;;;8.12;100.00
11808;BME280;5961;42.640;23.380;2023-02-28T06:43:24;94613.69;;;8.14;100.00
11808;BME280;5961;42.640;23.380;2023-02-28T06:45:54;94618.66;;;8.16;100.00
11808;BME280;5961;42.640;23.380;2023-02-28T06:48:21;94612.72;;;8.10;100.00
11808;BME280;5961;42.640;23.380;2023-02-28T06:50:48;94615.56;;;8.14;100.00
11808;BME280;5961;42.640;23.380;2023-02-28T06:53:15;94610.50;;;8.04;100.00
11808;BME280;5961;42.640;23.380;2023-02-28T06:55:42;94630.56;;;8.18;100.00
11808;BME280;5961;42.640;23.380;2023-02-28T06:58:10;94627.66;;;8.28;100.00
11808;BME280;5961;42.640;23.380;2023-02-28T07:00:44;94628.63;;;8.10;100.00
11808;BME280;5961;42.640;23.380;2023-02-28T07:03:11;94628.50;;;8.15;100.00
11808;BME280;5961;42.640;23.380;2023-02-28T07:05:38;94610.59;;;8.12;100.00
11808;BME280;5961;42.640;23.380;2023-02-28T07:08:06;94625.91;;;8.24;100.00
11808;BME280;5961;42.640;23.380;2023-02-28T07:10:33;94621.59;;;8.28;100.00
11808;BME280;5961;42.640;23.380;2023-02-28T07:13:00;94619.28;;;8.35;100.00
11808;BME280;5961;42.640;23.380;2023-02-28T07:15:28;94624.63;;;8.44;100.00
11808;BME280;5961;42.640;23.380;2023-02-28T07:17:55;94619.34;;;8.44;100.00
11808;BME280;5961;42.640;23.380;2023-02-28T07:20:22;94599.13;;;8.48;100.00
11808;BME280;5961;42.640;23.380;2023-02-28T07:22:49;94624.25;;;8.59;100.00
11808;BME280;5961;42.640;23.380;2023-02-28T07:25:21;94624.75;;;8.61;100.00
11808;BME280;5961;42.640;23.380;2023-02-28T07:27:48;94626.16;;;8.67;100.00
11808;BME280;5961;42.640;23.380;2023-02-28T07:30:15;94627.59;;;8.73;100.00
11808;BME280;5961;42.640;23.380;2023-02-28T07:32:43;94629.50;;;8.81;100.00
11808;BME280;5961;42.640;23.380;2023-02-28T07:35:10;94624.03;;;8.86;100.00
11808;BME280;5961;42.640;23.380;2023-02-28T07:37:37;94624.88;;;8.95;100.00
11808;BME280;5961;42.640;23.380;2023-02-28T07:40:06;94628.31;;;9.04;100.00
11808;BME280;5961;42.640;23.380;2023-02-28T07:42:34;94625.53;;;9.09;100.00
11808;BME280;5961;42.640;23.380;2023-02-28T07:45:01;94626.66;;;9.17;100.00
11808;BME280;5961;42.640;23.380;2023-02-28T07:47:31;94627.59;;;9.21;100.00
11808;BME280;5961;42.640;23.380;2023-02-28T07:49:59;94627.16;;;9.27;100.00
11808;BME280;5961;42.640;23.380;2023-02-28T07:52:26;94628.72;;;9.37;100.00
11808;BME280;5961;42.640;23.380;2023-02-28T07:54:52;94629.38;;;9.43;100.00
11808;BME280;5961;42.640;23.380;2023-02-28T07:57:19;94632.81;;;9.52;100.00
11808;BME280;5961;42.640;23.380;2023-02-28T07:59:46;94628.91;;;9.58;100.00
11808;BME280;5961;42.640;23.380;2023-02-28T08:02:13;94622.84;;;9.66;100.00
11808;BME280;5961;42.640;23.380;2023-02-28T08:04:40;94594.72;;;9.56;100.00
11808;BME280;5961;42.640;23.380;2023-02-28T08:07:11;94623.94;;;9.82;100.00
11808;BME280;5961;42.640;23.380;2023-02-28T08:09:38;94623.59;;;9.92;100.00
11808;BME280;5961;42.640;23.380;2023-02-28T08:12:05;94628.16;;;10.00;100.00
11808;BME280;5961;42.640;23.380;2023-02-28T08:14:32;94615.63;;;10.01;100.00
11808;BME280;5961;42.640;23.380;2023-02-28T08:16:59;94623.28;;;10.11;100.00
11808;BME280;5961;42.640;23.380;2023-02-28T08:19:26;94580.06;;;9.84;100.00
11808;BME280;5961;42.640;23.380;2023-02-28T08:21:54;94623.63;;;10.18;100.00
11808;BME280;5961;42.640;23.380;2023-02-28T08:24:22;94621.75;;;10.18;100.00
11808;BME280;5961;42.640;23.380;2023-02-28T08:26:49;94605.78;;;10.01;100.00
11808;BME280;5961;42.640;23.380;2023-02-28T08:29:15;94625.66;;;10.21;100.00
11808;BME280;5961;42.640;23.380;2023-02-28T08:31:42;94627.69;;;10.24;100.00
11808;BME280;5961;42.640;23.380;2023-02-28T08:34:11;94626.72;;;10.28;100.00
11808;BME280;5961;42.640;23.380;2023-02-28T08:36:38;94625.63;;;10.29;100.00
11808;BME280;5961;42.640;23.380;2023-02-28T08:39:05;94625.78;;;10.33;100.00
11808;BME280;5961;42.640;23.380;2023-02-28T08:41:33;94631.91;;;10.33;100.00
11808;BME280;5961;42.640;23.380;2023-02-28T08:44:00;94631.22;;;10.36;100.00
11808;BME280;5961;42.640;23.380;2023-02-28T08:46:27;94635.16;;;10.39;100.00
11808;BME280;5961;42.640;23.380;2023-02-28T08:48:54;94629.38;;;10.37;100.00
11808;BME280;5961;42.640;23.380;2023-02-28T08:51:24;94624.22;;;10.32;100.00
11808;BME280;5961;42.640;23.380;2023-02-28T08:53:52;94633.75;;;10.41;100.00
11808;BME280;5961;42.640;23.380;2023-02-28T08:56:20;94624.53;;;10.39;100.00
11808;BME280;5961;42.640;23.380;2023-02-28T08:58:49;94628.72;;;10.40;100.00
11808;BME280;5961;42.640;23.380;2023-02-28T09:01:17;94634.66;;;10.45;100.00
11808;BME280;5961;42.640;23.380;2023-02-28T09:03:45;94599.72;;;10.18;100.00
11808;BME280;5961;42.640;23.380;2023-02-28T09:06:13;94630.47;;;10.44;100.00
11808;BME280;5961;42.640;23.380;2023-02-28T09:08:40;94636.22;;;10.46;100.00
11808;BME280;5961;42.640;23.380;2023-02-28T09:11:08;94620.28;;;10.46;100.00
11808;BME280;5961;42.640;23.380;2023-02-28T09:13:35;94625.91;;;10.54;100.00
11808;BME280;5961;42.640;23.380;2023-02-28T09:16:05;94639.63;;;10.56;100.00
11808;BME280;5961;42.640;23.380;2023-02-28T09:18:33;94620.09;;;10.60;100.00
11808;BME280;5961;42.640;23.380;2023-02-28T09:21:03;94615.28;;;10.54;100.00
11808;BME280;5961;42.640;23.380;2023-02-28T09:23:30;94628.69;;;10.66;100.00
11808;BME280;5961;42.640;23.380;2023-02-28T09:25:57;94584.97;;;10.37;100.00
11808;BME280;5961;42.640;23.380;2023-02-28T09:28:24;94626.81;;;10.66;100.00
11808;BME280;5961;42.640;23.380;2023-02-28T09:30:52;94624.91;;;10.67;100.00
11808;BME280;5961;42.640;23.380;2023-02-28T09:33:21;94617.13;;;10.62;100.00
11808;BME280;5961;42.640;23.380;2023-02-28T09:35:49;94600.09;;;10.45;100.00
11808;BME280;5961;42.640;23.380;2023-02-28T09:38:16;94615.88;;;10.59;100.00
11808;BME280;5961;42.640;23.380;2023-02-28T09:40:48;94622.13;;;10.63;100.00
11808;BME280;5961;42.640;23.380;2023-02-28T09:43:16;94624.75;;;10.72;100.00
11808;BME280;5961;42.640;23.380;2023-02-28T09:45:48;94623.00;;;10.76;100.00
11808;BME280;5961;42.640;23.380;2023-02-28T09:48:23;94602.59;;;10.59;100.00
11808;BME280;5961;42.640;23.380;2023-02-28T09:50:55;94624.88;;;10.84;100.00
11808;BME280;5961;42.640;23.380;2023-02-28T09:53:27;94624.22;;;10.87;100.00
11808;BME280;5961;42.640;23.380;2023-02-28T09:56:01;94608.72;;;10.89;100.00
11808;BME280;5961;42.640;23.380;2023-02-28T09:58:37;94622.13;;;11.01;100.00
11808;BME280;5961;42.640;23.380;2023-02-28T10:01:12;94623.22;;;11.00;100.00
11808;BME280;5961;42.640;23.380;2023-02-28T10:03:47;94616.16;;;11.04;100.00
11808;BME280;5961;42.640;23.380;2023-02-28T10:06:18;94621.00;;;11.11;100.00
11808;BME280;5961;42.640;23.380;2023-02-28T10:08:51;94620.94;;;11.19;100.00
11808;BME280;5961;42.640;23.380;2023-02-28T10:11:19;94618.41;;;11.23;100.00
11808;BME280;5961;42.640;23.380;2023-02-28T10:13:53;94517.50;;;10.68;100.00
11808;BME280;5961;42.640;23.380;2023-02-28T10:16:30;94612.13;;;11.27;100.00
11808;BME280;5961;42.640;23.380;2023-02-28T10:19:03;94604.78;;;11.24;100.00
11808;BME280;5961;42.640;23.380;2023-02-28T10:21:35;94607.94;;;11.26;100.00
11808;BME280;5961;42.640;23.380;2023-02-28T10:24:10;94574.34;;;11.13;100.00
11808;BME280;5961;42.640;23.380;2023-02-28T10:26:41;94606.63;;;11.32;100.00
11808;BME280;5961;42.640;23.380;2023-02-28T10:29:10;94594.22;;;11.36;99.51
11808;BME280;5961;42.640;23.380;2023-02-28T10:31:38;94555.28;;;11.11;99.09
11808;BME280;5961;42.640;23.380;2023-02-28T10:34:07;94592.19;;;11.42;99.57
11808;BME280;5961;42.640;23.380;2023-02-28T10:36:38;94586.97;;;11.45;99.05
11808;BME280;5961;42.640;23.380;2023-02-28T10:39:39;94585.88;;;11.46;98.06
11808;BME280;5961;42.640;23.380;2023-02-28T10:42:22;94587.25;;;11.52;98.10
11808;BME280;5961;42.640;23.380;2023-02-28T10:45:05;94571.91;;;11.49;98.18
11808;BME280;5961;42.640;23.380;2023-02-28T10:47:33;94570.31;;;11.57;98.48
11808;BME280;5961;42.640;23.380;2023-02-28T10:50:03;94568.53;;;11.61;98.54
11808;BME280;5961;42.640;23.380;2023-02-28T10:52:36;94556.09;;;11.53;97.62
11808;BME280;5961;42.640;23.380;2023-02-28T10:55:20;94559.31;;;11.58;96.57
11808;BME280;5961;42.640;23.380;2023-02-28T10:57:48;94563.34;;;11.65;96.24
11808;BME280;5961;42.640;23.380;2023-02-28T11:00:18;94559.72;;;11.69;94.98
11808;BME280;5961;42.640;23.380;2023-02-28T11:02:47;94553.44;;;11.74;95.89
11808;BME280;5961;42.640;23.380;2023-02-28T11:05:30;94548.56;;;11.76;95.01
11808;BME280;5961;42.640;23.380;2023-02-28T11:08:05;94547.47;;;11.77;94.96
11808;BME280;5961;42.640;23.380;2023-02-28T11:10:33;94548.94;;;11.86;95.96
11808;BME280;5961;42.640;23.380;2023-02-28T11:13:00;94554.41;;;11.90;94.46
11808;BME280;5961;42.640;23.380;2023-02-28T11:15:30;94550.66;;;12.03;94.68
11808;BME280;5961;42.640;23.380;2023-02-28T11:18:00;94549.81;;;12.11;94.81
11808;BME280;5961;42.640;23.380;2023-02-28T11:20:30;94540.94;;;12.19;93.92
11808;BME280;5961;42.640;23.380;2023-02-28T11:23:03;94535.63;;;12.19;91.80
11808;BME280;5961;42.640;23.380;2023-02-28T11:25:32;94534.97;;;12.22;91.40
11808;BME280;5961;42.640;23.380;2023-02-28T11:28:01;94532.84;;;12.28;91.71
11808;BME280;5961;42.640;23.380;2023-02-28T11:30:36;94536.09;;;12.33;91.56
11808;BME280;5961;42.640;23.380;2023-02-28T11:33:21;94537.22;;;12.32;92.70
11808;BME280;5961;42.640;23.380;2023-02-28T11:35:51;94539.63;;;12.25;93.48
11808;BME280;5961;42.640;23.380;2023-02-28T11:38:19;94535.97;;;12.18;93.00
11808;BME280;5961;42.640;23.380;2023-02-28T11:40:51;94543.19;;;12.29;93.69
11808;BME280;5961;42.640;23.380;2023-02-28T11:43:36;94539.88;;;12.32;93.58
11808;BME280;5961;42.640;23.380;2023-02-28T11:46:17;94537.78;;;12.38;93.82
11808;BME280;5961;42.640;23.380;2023-02-28T11:48:55;94541.66;;;12.40;92.57
11808;BME280;5961;42.640;23.380;2023-02-28T11:51:32;94529.69;;;12.46;91.76
11808;BME280;5961;42.640;23.380;2023-02-28T11:54:25;94524.59;;;12.53;91.88
11808;BME280;5961;42.640;23.380;2023-02-28T11:56:57;94535.03;;;12.58;91.15
11808;BME280;5961;42.640;23.380;2023-02-28T11:59:36;94535.69;;;12.68;90.88
11808;BME280;5961;42.640;23.380;2023-02-28T12:02:23;94538.59;;;12.75;90.82
11808;BME280;5961;42.640;23.380;2023-02-28T12:04:58;94522.13;;;12.73;89.81
11808;BME280;5961;42.640;23.380;2023-02-28T12:07:36;94539.28;;;12.84;89.56
11808;BME280;5961;42.640;23.380;2023-02-28T12:10:20;94536.59;;;12.96;89.29
11808;BME280;5961;42.640;23.380;2023-02-28T12:12:55;94540.69;;;13.05;88.77
11808;BME280;5961;42.640;23.380;2023-02-28T12:15:45;94535.34;;;13.05;88.31
11808;BME280;5961;42.640;23.380;2023-02-28T12:18:26;94534.59;;;13.05;87.40
11808;BME280;5961;42.640;23.380;2023-02-28T12:21:04;94535.69;;;13.04;87.36
11808;BME280;5961;42.640;23.380;2023-02-28T12:23:49;94530.38;;;13.04;87.78
11808;BME280;5961;42.640;23.380;2023-02-28T12:26:26;94527.69;;;13.04;86.94
11808;BME280;5961;42.640;23.380;2023-02-28T12:29:01;94527.69;;;13.04;87.05
11808;BME280;5961;42.640;23.380;2023-02-28T12:31:34;94531.69;;;12.98;87.25
11808;BME280;5961;42.640;23.380;2023-02-28T12:34:06;94533.47;;;13.06;86.98
11808;BME280;5961;42.640;23.380;2023-02-28T12:36:36;94527.16;;;12.98;87.16
11808;BME280;5961;42.640;23.380;2023-02-28T12:39:10;94528.00;;;13.02;87.13
11808;BME280;5961;42.640;23.380;2023-02-28T12:41:42;94512.25;;;12.73;87.21
11808;BME280;5961;42.640;23.380;2023-02-28T12:44:15;94528.59;;;12.84;88.31
11808;BME280;5961;42.640;23.380;2023-02-28T12:46:46;94516.38;;;12.83;88.48
11808;BME280;5961;42.640;23.380;2023-02-28T12:49:19;94526.06;;;12.87;88.39
11808;BME280;5961;42.640;23.380;2023-02-28T12:51:47;94517.16;;;12.83;87.33
11808;BME280;5961;42.640;23.380;2023-02-28T12:54:22;94524.72;;;12.81;86.97
11808;BME280;5961;42.640;23.380;2023-02-28T12:56:56;94522.38;;;12.80;87.40
11808;BME280;5961;42.640;23.380;2023-02-28T12:59:27;94521.47;;;12.76;87.77
11808;BME280;5961;42.640;23.380;2023-02-28T13:05:36;94524.06;;;12.84;87.01
11808;BME280;5961;42.640;23.380;2023-02-28T13:11:25;94533.47;;;13.06;86.15
11808;BME280;5961;42.640;23.380;2023-02-28T13:13:58;94526.59;;;13.17;85.86
11808;BME280;5961;42.640;23.380;2023-02-28T13:16:25;94523.69;;;13.22;85.94
11808;BME280;5961;42.640;23.380;2023-02-28T13:18:52;94520.00;;;13.27;84.82
11808;BME280;5961;42.640;23.380;2023-02-28T13:21:42;94512.34;;;13.25;83.65
11808;BME280;5961;42.640;23.380;2023-02-28T13:24:10;94471.91;;;12.99;82.69